Terminal Aerodrome Forecast
Issued by NWS

Home | Current Version | Previous Version | Text Only | Print | Product List | Glossary On
Versions: 1 2 3 4 5 6 7 8 9 10 11 12 13 14 15 16 17
939
FTUS41 KBGM 252320
TAFELM
TAF
KELM 252320Z 2600/2624 00000KT P6SM SKC
     FM260700 VRB03KT 2SM BR SCT200
     FM260800 VRB03KT 3/4SM BR SCT200
      TEMPO 2608/2612 1/4SM FG VV001
     FM261400 VRB03KT P6SM SCT150=

USA.gov is the U.S. government's official web portal to all federal, state and local government web resources and services.